Time;durP1;ratioP1;P1;durP2;ratioP2;P2;SDS_P1;SDS_P2;PMS_P1;PMS_P2;Temp;Humidity;BMP_temperature;BMP_pressure;BME280_temperature;BME280_humidity;BME280_pressure;Samples;Min_cycle;Max_cycle;Signal;HPM_P1;HPM_P2
2021/03/27 00:01:06;;;;;;;178.15;93.72;;;179.50;1510.40;;;;;;4990335;28;20214;-69
2021/03/27 00:03:51;;;;;;;180.37;91.60;;;179.40;1510.40;;;;;;4990193;28;20034;-69
2021/03/27 00:06:35;;;;;;;168.70;85.35;;;179.30;1536.00;;;;;;4990117;28;20072;-68
2021/03/27 00:09:09;;;;;;;170.73;89.97;;;179.40;1536.00;;;;;;4990069;28;20042;-70
2021/03/27 00:11:46;;;;;;;156.88;84.13;;;179.20;1536.00;;;;;;4989904;28;20117;-71
2021/03/27 00:14:17;;;;;;;151.73;82.22;;;179.20;1536.00;;;;;;4973591;28;20105;-70
2021/03/27 00:16:50;;;;;;;156.73;81.30;;;179.20;1536.00;;;;;;4973659;28;20122;-69
2021/03/27 00:19:24;;;;;;;147.23;75.53;;;154.50;1536.00;;;;;;4965018;28;733652;-70
2021/03/27 00:21:56;;;;;;;139.63;71.38;;;154.40;1536.00;;;;;;4990627;28;20564;-70
2021/03/27 00:24:32;;;;;;;119.85;66.32;;;154.50;1536.00;;;;;;4990689;28;20042;-70
2021/03/27 00:27:07;;;;;;;114.57;61.22;;;154.50;1536.00;;;;;;4990523;28;20166;-69
2021/03/27 00:30:03;;;;;;;98.82;54.05;;;154.50;1510.40;;;;;;4990701;28;20084;-69
2021/03/27 00:32:37;;;;;;;88.53;48.75;;;154.30;1536.00;;;;;;4989188;28;20119;-69
2021/03/27 00:35:11;;;;;;;83.78;47.13;;;154.30;1510.40;;;;;;5069104;28;20036;-69
2021/03/27 00:37:39;;;;;;;82.88;45.95;;;154.30;1510.40;;;;;;5071737;28;20024;-69
2021/03/27 00:40:09;;;;;;;81.60;47.05;;;154.30;1510.40;;;;;;5071747;28;20038;-70
2021/03/27 00:42:39;;;;;;;88.53;47.85;;;154.30;1510.40;;;;;;5071835;28;20067;-69
2021/03/27 00:45:08;;;;;;;85.15;48.78;;;154.30;1536.00;;;;;;5070956;28;20101;-70
2021/03/27 00:47:37;;;;;;;97.10;50.40;;;154.30;1510.40;;;;;;5071851;28;20064;-69
2021/03/27 00:50:09;;;;;;;90.22;49.35;;;154.30;1510.40;;;;;;5072009;28;20024;-69
2021/03/27 00:52:38;;;;;;;93.30;50.95;;;154.30;1510.40;;;;;;5071488;28;20509;-70
2021/03/27 00:55:10;;;;;;;104.28;53.00;;;154.20;1536.00;;;;;;5071854;28;20029;-68
2021/03/27 00:57:52;;;;;;;101.55;52.20;;;154.30;1536.00;;;;;;5071438;28;20036;-70
2021/03/27 01:00:26;;;;;;;104.50;52.08;;;154.20;1536.00;;;;;;5071441;28;20044;-69
2021/03/27 01:02:58;;;;;;;97.05;50.67;;;154.20;1536.00;;;;;;5071695;28;20057;-69
2021/03/27 01:05:26;;;;;;;91.85;49.58;;;154.20;1536.00;;;;;;5071538;28;20374;-69
2021/03/27 01:07:53;;;;;;;92.75;51.03;;;154.20;1536.00;;;;;;5071501;28;20103;-69
2021/03/27 01:10:59;;;;;;;89.57;49.38;;;154.20;1510.40;;;;;;5071218;28;20024;-69
2021/03/27 01:13:54;;;;;;;97.38;50.97;;;154.20;1536.00;;;;;;5070589;28;20545;-71
2021/03/27 01:16:27;;;;;;;94.25;49.25;;;154.10;1536.00;;;;;;5070970;28;20045;-71
2021/03/27 01:19:01;;;;;;;96.65;49.92;;;154.10;1536.00;;;;;;5070984;28;20074;-71
2021/03/27 01:21:34;;;;;;;95.72;49.47;;;154.10;1536.00;;;;;;5070983;28;20036;-69
2021/03/27 01:24:02;;;;;;;97.57;50.28;;;154.10;1561.60;;;;;;5070909;28;20569;-69
2021/03/27 01:26:49;;;;;;;100.00;49.90;;;154.10;1561.60;;;;;;5071028;28;20356;-69
2021/03/27 01:29:41;;;;;;;104.15;51.38;;;154.00;1561.60;;;;;;5071003;28;20028;-69
2021/03/27 01:32:24;;;;;;;104.05;51.47;;;153.90;1561.60;;;;;;5070159;28;20035;-70
2021/03/27 01:34:49;;;;;;;103.70;52.85;;;153.90;1587.20;;;;;;5070820;28;20367;-69
2021/03/27 01:37:20;;;;;;;109.35;54.55;;;153.70;1587.20;;;;;;5070801;28;20028;-70
2021/03/27 01:40:24;;;;;;;104.97;54.85;;;153.70;1612.80;;;;;;5070836;28;20024;-70
2021/03/27 01:43:19;;;;;;;99.22;51.33;;;153.70;1612.80;;;;;;5070906;28;20051;-69
2021/03/27 01:46:03;;;;;;;92.60;51.70;;;153.60;1612.80;;;;;;4989412;28;20054;-70
2021/03/27 01:48:40;;;;;;;88.32;47.33;;;153.60;1638.40;;;;;;4989350;28;20080;-69
2021/03/27 01:51:23;;;;;;;88.00;48.53;;;153.60;1612.80;;;;;;4989305;28;20030;-70
2021/03/27 01:54:03;;;;;;;90.10;49.47;;;153.60;1612.80;;;;;;4989293;28;20037;-70
2021/03/27 01:56:42;;;;;;;88.82;49.70;;;153.60;1612.80;;;;;;4989027;28;20042;-70
2021/03/27 01:59:13;;;;;;;94.88;49.78;;;128.80;1638.40;;;;;;4989142;28;20068;-69
2021/03/27 02:01:46;;;;;;;100.72;53.22;;;128.80;1612.80;;;;;;4989038;28;20044;-69
2021/03/27 02:04:24;;;;;;;95.80;52.58;;;128.70;1638.40;;;;;;4989167;28;20066;-69
2021/03/27 02:07:00;;;;;;;98.85;51.65;;;128.70;1638.40;;;;;;4989053;28;20085;-70
2021/03/27 02:09:33;;;;;;;93.65;50.17;;;128.60;1638.40;;;;;;4989147;28;20038;-70
2021/03/27 02:12:14;;;;;;;100.00;52.20;;;128.60;1638.40;;;;;;4989118;28;20130;-69
2021/03/27 02:15:00;;;;;;;108.47;53.58;;;128.60;1638.40;;;;;;4988906;28;20077;-69
2021/03/27 02:17:38;;;;;;;100.82;55.28;;;128.50;1664.00;;;;;;4988805;28;20030;-70
2021/03/27 02:20:47;;;;;;;98.03;53.95;;;128.40;1664.00;;;;;;4989061;28;20030;-70
2021/03/27 02:23:38;;;;;;;90.50;51.70;;;128.30;1664.00;;;;;;5062587;28;20064;-69
2021/03/27 02:26:20;;;;;;;93.80;51.08;;;128.30;1664.00;;;;;;5070387;28;20071;-70
2021/03/27 02:29:07;;;;;;;102.72;52.42;;;128.30;1664.00;;;;;;5070044;28;20129;-70
2021/03/27 02:31:42;;;;;;;103.10;52.78;;;128.30;1664.00;;;;;;5070226;28;20104;-69
2021/03/27 02:34:28;;;;;;;104.80;55.92;;;128.30;1664.00;;;;;;5070152;28;20043;-69
2021/03/27 02:37:23;;;;;;;116.20;57.33;;;128.20;1664.00;;;;;;5068613;28;20043;-70
2021/03/27 02:40:05;;;;;;;102.35;55.38;;;128.10;1664.00;;;;;;5070190;28;20025;-69
2021/03/27 02:42:55;;;;;;;99.13;53.08;;;128.00;1689.60;;;;;;5070282;28;20052;-70
2021/03/27 02:45:25;;;;;;;106.22;54.38;;;128.00;1664.00;;;;;;5070180;28;20511;-69
2021/03/27 02:48:05;;;;;;;118.55;56.13;;;128.00;1689.60;;;;;;5070329;28;20047;-69
2021/03/27 02:50:39;;;;;;;98.65;54.40;;;128.00;1689.60;;;;;;5070316;28;20027;-70
2021/03/27 02:53:57;;;;;;;110.32;58.65;;;103.20;1664.00;;;;;;5070150;28;20031;-70
2021/03/27 02:56:39;;;;;;;110.93;57.63;;;103.20;1664.00;;;;;;4931049;29;20055;-69
2021/03/27 02:59:39;;;;;;;107.75;55.97;;;103.10;1664.00;;;;;;4930931;29;20494;-70
2021/03/27 03:02:33;;;;;;;102.35;52.63;;;103.10;1664.00;;;;;;4930746;29;20407;-69
2021/03/27 03:05:12;;;;;;;94.68;53.35;;;102.90;1689.60;;;;;;4855530;29;20077;-68
2021/03/27 03:08:04;;;;;;;90.28;52.90;;;102.90;1689.60;;;;;;4857147;29;20033;-68
2021/03/27 03:10:40;;;;;;;117.28;55.38;;;102.80;1715.20;;;;;;4859220;29;20050;-69
2021/03/27 03:13:22;;;;;;;107.88;54.55;;;102.80;1715.20;;;;;;4858868;29;20438;-71
2021/03/27 03:15:55;;;;;;;108.60;57.65;;;102.80;1715.20;;;;;;4858928;29;20044;-71
2021/03/27 03:18:46;;;;;;;106.55;56.00;;;102.80;1715.20;;;;;;4859021;29;20493;-68
2021/03/27 03:21:31;;;;;;;107.32;56.53;;;102.80;1715.20;;;;;;4859013;29;20532;-69
2021/03/27 03:24:14;;;;;;;104.20;57.13;;;102.80;1715.20;;;;;;4858686;29;20116;-69
2021/03/27 03:27:07;;;;;;;115.32;62.30;;;102.70;1715.20;;;;;;4858874;29;20058;-70
2021/03/27 03:29:57;;;;;;;118.80;65.63;;;102.70;1715.20;;;;;;4858844;29;20560;-68
2021/03/27 03:32:46;;;;;;;117.63;65.35;;;102.70;1715.20;;;;;;4921125;28;20080;-69
2021/03/27 03:35:31;;;;;;;101.05;55.15;;;102.70;1740.80;;;;;;5011324;28;20050;-69
2021/03/27 03:38:16;;;;;;;95.80;54.13;;;102.70;1740.80;;;;;;5011063;28;20088;-70
2021/03/27 03:40:50;;;;;;;95.53;53.45;;;102.70;1740.80;;;;;;5011469;28;20029;-71
2021/03/27 03:43:45;;;;;;;93.60;51.08;;;102.70;1740.80;;;;;;5072652;28;20108;-70
2021/03/27 03:46:37;;;;;;;85.80;51.15;;;102.80;1740.80;;;;;;5073079;28;20115;-69
2021/03/27 03:49:06;;;;;;;96.30;52.60;;;102.80;1715.20;;;;;;5073161;28;20032;-70
2021/03/27 03:51:47;;;;;;;93.72;53.13;;;102.80;1740.80;;;;;;5073123;28;20016;-70
2021/03/27 03:54:28;;;;;;;90.10;51.97;;;102.80;1715.20;;;;;;5073048;28;20048;-70
2021/03/27 03:57:34;;;;;;;91.15;51.50;;;102.80;1715.20;;;;;;5072908;28;20540;-70
2021/03/27 04:00:02;;;;;;;87.22;52.70;;;102.80;1740.80;;;;;;5072636;28;20039;-69
2021/03/27 04:02:34;;;;;;;92.88;52.92;;;102.70;1740.80;;;;;;5072537;28;20021;-70
2021/03/27 04:05:19;;;;;;;91.80;53.03;;;102.70;1740.80;;;;;;5072620;28;20037;-69
2021/03/27 04:08:11;;;;;;;89.43;52.35;;;102.60;1740.80;;;;;;5071252;28;20020;-70
2021/03/27 04:10:41;;;;;;;84.80;50.53;;;102.70;1740.80;;;;;;5068510;28;20033;-70
2021/03/27 04:13:15;;;;;;;90.32;52.67;;;102.60;1740.80;;;;;;5072120;28;20475;-70
2021/03/27 04:15:53;;;;;;;82.38;49.58;;;102.60;1740.80;;;;;;5072472;28;20068;-70
2021/03/27 04:18:42;;;;;;;81.95;48.95;;;102.60;1740.80;;;;;;5071223;28;20127;-69
2021/03/27 04:21:13;;;;;;;85.47;49.58;;;102.50;1766.40;;;;;;5072236;28;20382;-70
2021/03/27 04:24:02;;;;;;;77.72;46.42;;;102.50;1766.40;;;;;;5072044;28;20035;-70
2021/03/27 04:26:36;;;;;;;79.68;46.90;;;102.50;1766.40;;;;;;5072075;28;20370;-70
2021/03/27 04:29:30;;;;;;;83.00;47.13;;;102.50;1766.40;;;;;;5072150;28;20421;-69
2021/03/27 04:32:17;;;;;;;81.45;45.65;;;102.50;1766.40;;;;;;5070624;28;20074;-69
2021/03/27 04:34:52;;;;;;;77.30;44.30;;;102.60;1766.40;;;;;;5072239;28;20363;-70
2021/03/27 04:37:41;;;;;;;74.32;43.38;;;102.50;1766.40;;;;;;5071729;28;20043;-70
2021/03/27 04:40:09;;;;;;;73.18;43.67;;;102.50;1766.40;;;;;;5071664;28;20032;-70
2021/03/27 04:42:55;;;;;;;77.15;42.60;;;102.50;1766.40;;;;;;5071924;28;20374;-69
2021/03/27 04:45:27;;;;;;;73.82;42.08;;;102.50;1766.40;;;;;;5072193;28;20379;-69
2021/03/27 04:48:23;;;;;;;71.78;42.20;;;102.60;1766.40;;;;;;5071929;28;20107;-70
2021/03/27 04:51:01;;;;;;;90.15;50.75;;;102.50;1740.80;;;;;;5071806;28;20475;-70
2021/03/27 04:53:35;;;;;;;142.82;78.68;;;102.50;1740.80;;;;;;5071590;28;20107;-71
2021/03/27 04:56:24;;;;;;;81.70;48.15;;;102.50;1766.40;;;;;;5071955;28;20031;-71
2021/03/27 04:58:53;;;;;;;73.18;41.15;;;102.60;1766.40;;;;;;5071430;28;20028;-71
2021/03/27 05:01:18;;;;;;;66.40;39.22;;;102.60;1740.80;;;;;;5071469;28;20052;-71
2021/03/27 05:03:49;;;;;;;68.72;39.95;;;102.70;1740.80;;;;;;5071478;28;20117;-71
2021/03/27 05:06:34;;;;;;;64.93;39.23;;;102.80;1740.80;;;;;;5071577;28;20597;-70
2021/03/27 05:09:07;;;;;;;64.47;38.67;;;102.80;1740.80;;;;;;5071279;28;20039;-70
2021/03/27 05:12:08;;;;;;;65.47;38.60;;;102.90;1715.20;;;;;;5071375;28;20021;-70
2021/03/27 05:14:45;;;;;;;63.63;38.30;;;102.80;1715.20;;;;;;4989750;28;20097;-71
2021/03/27 05:17:40;;;;;;;69.53;40.10;;;102.90;1740.80;;;;;;4989869;28;20129;-72
2021/03/27 05:20:26;;;;;;;64.93;40.40;;;102.90;1740.80;;;;;;4989748;28;20125;-72
2021/03/27 05:22:52;;;;;;;63.47;40.00;;;102.90;1740.80;;;;;;4989573;28;20038;-72
2021/03/27 05:25:21;;;;;;;62.58;37.55;;;102.90;1715.20;;;;;;4973385;28;20476;-73
2021/03/27 05:28:05;;;;;;;63.03;38.78;;;103.00;1715.20;;;;;;4989549;28;20096;-71
2021/03/27 05:30:55;;;;;;;66.47;38.38;;;102.90;1715.20;;;;;;4989479;28;20076;-71
2021/03/27 05:33:39;;;;;;;61.80;37.65;;;103.00;1715.20;;;;;;4989615;28;20064;-71
2021/03/27 05:36:27;;;;;;;59.15;36.63;;;103.00;1715.20;;;;;;4989567;28;20532;-70
2021/03/27 05:39:33;;;;;;;59.50;36.45;;;103.10;1715.20;;;;;;4989613;28;20053;-70
2021/03/27 05:42:13;;;;;;;60.35;36.08;;;103.10;1740.80;;;;;;4896773;29;20411;-72
2021/03/27 05:45:03;;;;;;;60.13;37.08;;;103.20;1715.20;;;;;;4912421;29;20150;-71
2021/03/27 05:47:40;;;;;;;60.33;38.47;;;103.20;1715.20;;;;;;4916798;28;20594;-72
2021/03/27 05:50:06;;;;;;;70.78;41.55;;;103.30;1740.80;;;;;;4989423;28;20026;-71
2021/03/27 05:52:49;;;;;;;71.78;41.70;;;103.30;1740.80;;;;;;4989619;28;20484;-71
2021/03/27 05:55:41;;;;;;;79.55;43.88;;;128.00;1766.40;;;;;;4989300;28;20113;-71
2021/03/27 05:58:25;;;;;;;75.80;44.53;;;128.10;1766.40;;;;;;4989285;28;20034;-71
2021/03/27 06:00:54;;;;;;;78.40;44.00;;;128.10;1766.40;;;;;;4989377;28;20102;-71
2021/03/27 06:03:53;;;;;;;74.55;43.03;;;128.20;1766.40;;;;;;4989135;28;20058;-71
2021/03/27 06:06:28;;;;;;;71.10;41.38;;;128.30;1766.40;;;;;;4989149;28;20037;-72
2021/03/27 06:09:15;;;;;;;69.50;41.13;;;128.50;1766.40;;;;;;4989178;28;20026;-71
2021/03/27 06:12:22;;;;;;;71.47;39.28;;;128.60;1766.40;;;;;;4989159;28;20030;-71
2021/03/27 06:15:06;;;;;;;62.13;39.10;;;128.70;1740.80;;;;;;4972201;28;20046;-72
2021/03/27 06:17:50;;;;;;;58.67;37.25;;;128.80;1740.80;;;;;;5006532;28;20123;-72
2021/03/27 06:21:00;;;;;;;54.90;35.50;;;153.60;1740.80;;;;;;5070546;28;20028;-72
2021/03/27 06:23:31;;;;;;;55.70;35.38;;;153.70;1740.80;;;;;;4988738;28;20034;-72
2021/03/27 06:25:57;;;;;;;;;;;153.90;1740.80;;;;;;4989305;28;20119;-72
2021/03/27 06:28:43;;;;;;;53.53;33.17;;;153.90;1715.20;;;;;;4988992;28;19909;-70
2021/03/27 06:31:35;;;;;;;52.72;32.67;;;154.00;1715.20;;;;;;4988946;28;20061;-71
2021/03/27 06:34:17;;;;;;;54.08;33.15;;;154.10;1689.60;;;;;;4972222;28;20509;-70
2021/03/27 06:36:53;;;;;;;49.75;32.67;;;154.20;1689.60;;;;;;4988870;28;20605;-70
2021/03/27 06:39:25;;;;;;;52.03;34.40;;;154.30;1689.60;;;;;;4985794;28;20109;-71
2021/03/27 06:41:59;;;;;;;54.22;34.00;;;154.50;1689.60;;;;;;4984115;28;20034;-69
2021/03/27 06:44:56;;;;;;;50.83;33.65;;;179.20;1664.00;;;;;;4982781;28;20039;-70
2021/03/27 06:47:45;;;;;;;48.92;32.40;;;179.30;1664.00;;;;;;4983663;28;20031;-70
2021/03/27 06:50:35;;;;;;;46.92;32.05;;;179.40;1638.40;;;;;;4983475;28;20045;-71
2021/03/27 06:53:13;;;;;;;49.53;31.25;;;179.50;1638.40;;;;;;4987537;28;20146;-71
2021/03/27 06:55:51;;;;;;;48.33;31.73;;;179.60;1638.40;;;;;;5083237;28;20069;-71
2021/03/27 06:58:47;;;;;;;48.35;31.58;;;179.80;1638.40;;;;;;5083154;28;20027;-72
2021/03/27 07:01:34;;;;;;;44.15;31.40;;;179.90;1612.80;;;;;;5082357;28;20021;-73
2021/03/27 07:04:23;;;;;;;48.78;30.67;;;180.00;1587.20;;;;;;5083201;28;20043;-72
2021/03/27 07:07:10;;;;;;;51.28;31.63;;;180.10;1561.60;;;;;;5082956;28;20047;-72
2021/03/27 07:09:47;;;;;;;49.35;30.95;;;204.90;1587.20;;;;;;5082154;28;20020;-73
2021/03/27 07:13:04;;;;;;;46.55;29.30;;;205.00;1587.20;;;;;;5082213;28;20017;-73
2021/03/27 07:15:47;;;;;;;54.72;35.53;;;205.10;1561.60;;;;;;4999959;28;20089;-72
2021/03/27 07:18:44;;;;;;;69.18;45.47;;;205.30;1536.00;;;;;;4983600;28;20045;-72
2021/03/27 07:21:28;;;;;;;49.08;31.33;;;205.40;1510.40;;;;;;5001561;28;20029;-71
2021/03/27 07:24:47;;;;;;;58.13;37.70;;;205.50;1510.40;;;;;;5000303;28;20544;-70
2021/03/27 07:27:12;;;;;;;54.15;32.85;;;205.70;1484.80;;;;;;4928385;29;20027;-70
2021/03/27 07:30:10;;;;;;;170.52;92.75;;;230.40;1459.20;;;;;;4932780;29;20493;-72
2021/03/27 07:32:35;;;;;;;117.25;64.65;;;230.50;1433.60;;;;;;4932595;29;20034;-73
2021/03/27 07:35:38;;;;;;;66.50;39.22;;;230.60;1433.60;;;;;;4932769;29;20044;-72
2021/03/27 07:38:25;;;;;;;58.65;34.85;;;230.70;1433.60;;;;;;4932578;29;20040;-73
2021/03/27 07:41:09;;;;;;;90.05;43.95;;;230.90;1433.60;;;;;;4932539;29;20042;-71
2021/03/27 07:44:14;;;;;;;64.18;35.40;;;231.00;1408.00;;;;;;4927756;29;20043;-73
2021/03/27 07:47:10;;;;;;;82.97;45.15;;;231.10;1382.40;;;;;;4895046;29;20458;-71
2021/03/27 07:50:01;;;;;;;51.03;30.08;;;231.20;1382.40;;;;;;4894593;29;20028;-72
2021/03/27 07:52:53;;;;;;;189.60;95.88;;;231.30;1356.80;;;;;;4951722;28;20051;-72
2021/03/27 07:55:37;;;;;;;132.05;67.43;;;256.10;1356.80;;;;;;4949946;29;20078;-72
2021/03/27 07:58:05;;;;;;;178.18;87.60;;;256.20;1356.80;;;;;;4950540;29;20035;-71
2021/03/27 08:01:14;;;;;;;47.60;28.33;;;256.40;1356.80;;;;;;4948771;29;20090;-71
2021/03/27 08:03:58;;;;;;;134.07;67.57;;;256.40;1331.20;;;;;;4932204;29;20470;-71
2021/03/27 08:06:38;;;;;;;83.32;43.95;;;256.50;1331.20;;;;;;4950071;29;20031;-70
2021/03/27 08:09:25;;;;;;;49.77;31.57;;;256.70;1331.20;;;;;;4947685;29;20058;-74
2021/03/27 08:12:19;;;;;;;78.32;46.35;;;256.80;1331.20;;;;;;4948799;29;20098;-71
2021/03/27 08:14:58;;;;;;;62.42;38.90;;;281.60;1331.20;;;;;;4950458;29;20031;-71
2021/03/27 08:17:41;;;;;;;48.40;32.00;;;281.70;1331.20;;;;;;4947291;29;20045;-70
2021/03/27 08:20:16;;;;;;;45.53;29.35;;;281.80;1356.80;;;;;;4950564;29;20047;-71
2021/03/27 08:23:07;;;;;;;48.67;33.47;;;281.90;1331.20;;;;;;4942101;28;20061;-69
2021/03/27 08:25:53;;;;;;;43.58;29.23;;;282.10;1331.20;;;;;;4980549;28;20050;-70
2021/03/27 08:28:19;;;;;;;53.85;37.88;;;282.20;1305.60;;;;;;4979438;28;20064;-71
2021/03/27 08:31:14;;;;;;;45.50;26.35;;;282.30;1305.60;;;;;;4980963;28;20450;-71
2021/03/27 08:34:06;;;;;;;38.22;24.95;;;282.40;1305.60;;;;;;5020300;28;20026;-70
2021/03/27 08:36:50;;;;;;;43.63;26.45;;;282.50;1305.60;;;;;;5020115;28;20048;-70
2021/03/27 08:39:37;;;;;;;47.45;29.33;;;307.30;1305.60;;;;;;5017721;28;20025;-71
2021/03/27 08:42:37;;;;;;;39.10;28.08;;;307.40;1305.60;;;;;;5019266;28;20026;-71
2021/03/27 08:45:21;;;;;;;41.70;27.15;;;;;;;;;;5018416;28;20050;-71
2021/03/27 08:47:51;;;;;;;37.58;25.85;;;307.50;1280.00;;;;;;5019325;28;20134;-71
2021/03/27 08:50:41;;;;;;;41.80;26.42;;;307.80;1254.40;;;;;;5018202;28;20053;-71
2021/03/27 08:53:35;;;;;;;39.03;25.88;;;307.90;1254.40;;;;;;5019808;28;20026;-70
2021/03/27 08:56:12;;;;;;;43.03;28.30;;;308.10;1280.00;;;;;;5018676;28;20114;-71
2021/03/27 08:59:02;;;;;;;72.93;45.42;;;332.80;1305.60;;;;;;5018342;28;20104;-72
2021/03/27 09:01:34;;;;;;;83.47;51.20;;;332.90;1280.00;;;;;;5018818;28;20511;-71
2021/03/27 09:04:24;;;;;;;55.83;35.20;;;333.00;1254.40;;;;;;5080538;28;20034;-71
2021/03/27 09:07:32;;;;;;;55.85;37.72;;;333.20;1228.80;;;;;;5081539;28;20024;-70
2021/03/27 09:10:08;;;;;;;47.42;37.03;;;333.30;1177.60;;;;;;5079562;28;20486;-70
2021/03/27 09:13:00;;;;;;;37.95;25.60;;;333.40;1177.60;;;;;;5079492;28;20023;-71
2021/03/27 09:15:54;;;;;;;45.65;29.42;;;333.50;1152.00;;;;;;5081161;28;20033;-71
2021/03/27 09:18:49;;;;;;;43.70;24.85;;;333.60;1152.00;;;;;;5080034;28;20079;-70
2021/03/27 09:21:35;;;;;;;41.45;26.83;;;333.70;1152.00;;;;;;4991937;28;20096;-70
2021/03/27 09:24:34;;;;;;;29.77;19.58;;;358.40;1152.00;;;;;;4999933;28;20034;-70
2021/03/27 09:27:25;;;;;;;43.50;27.10;;;358.60;1152.00;;;;;;4998634;28;20038;-71
2021/03/27 09:30:27;;;;;;;63.80;37.55;;;358.80;1126.40;;;;;;4999452;28;20077;-71
2021/03/27 09:33:13;;;;;;;41.53;23.60;;;359.00;1049.60;;;;;;4989691;28;20039;-71
2021/03/27 09:35:57;;;;;;;59.67;32.67;;;359.00;1024.00;;;;;;4989454;28;20041;-71
2021/03/27 09:38:26;;;;;;;41.05;25.98;;;359.00;1049.60;;;;;;4989643;28;20058;-71
2021/03/27 09:41:09;;;;;;;22.75;17.10;;;359.10;1024.00;;;;;;4989589;28;20022;-71
2021/03/27 09:44:08;;;;;;;60.00;35.55;;;359.20;998.40;;;;;;4989058;28;20050;-70
2021/03/27 09:46:52;;;;;;;30.45;23.45;;;384.00;1024.00;;;;;;4989538;28;20026;-72
2021/03/27 09:49:49;;;;;;;29.38;21.05;;;384.00;1049.60;;;;;;4989325;28;20026;-71
2021/03/27 09:52:48;;;;;;;30.38;21.33;;;384.20;1049.60;;;;;;4984915;28;20130;-71
2021/03/27 09:55:33;;;;;;;32.72;20.10;;;384.40;1024.00;;;;;;4989530;28;20474;-71
2021/03/27 09:58:10;;;;;;;36.17;23.25;;;384.50;998.40;;;;;;5021931;28;20037;-72
2021/03/27 10:00:50;;;;;;;33.83;20.98;;;384.70;1024.00;;;;;;5070436;28;20475;-72
2021/03/27 10:03:53;;;;;;;25.85;18.45;;;384.80;972.80;;;;;;5070481;28;20050;-71
2021/03/27 10:06:46;;;;;;;31.10;19.55;;;409.60;972.80;;;;;;5070486;28;20028;-72
2021/03/27 10:09:30;;;;;;;31.50;18.77;;;409.70;1049.60;;;;;;5070598;28;20024;-70
2021/03/27 10:12:11;;;;;;;28.40;19.13;;;409.80;972.80;;;;;;5070500;28;20028;-71
2021/03/27 10:14:44;;;;;;;28.67;18.80;;;410.00;998.40;;;;;;5070106;28;20025;-71
2021/03/27 10:17:40;;;;;;;28.52;19.15;;;410.00;947.20;;;;;;5072125;28;20101;-72
2021/03/27 10:20:14;;;;;;;26.25;18.80;;;410.10;947.20;;;;;;5073106;28;20044;-71
2021/03/27 10:23:12;;;;;;;28.02;20.00;;;410.20;896.00;;;;;;5074710;28;20043;-70
2021/03/27 10:26:03;;;;;;;32.80;19.92;;;410.20;896.00;;;;;;5073855;28;20048;-70
2021/03/27 10:28:36;;;;;;;32.20;20.03;;;410.30;896.00;;;;;;5074262;28;20031;-70
2021/03/27 10:31:17;;;;;;;41.22;30.50;;;410.30;870.40;;;;;;5074428;28;20043;-70
2021/03/27 10:33:55;;;;;;;34.47;21.08;;;410.40;896.00;;;;;;5074258;28;20071;-70
2021/03/27 10:36:27;;;;;;;31.90;21.55;;;410.40;870.40;;;;;;5072983;28;20479;-71
2021/03/27 10:39:09;;;;;;;36.22;25.08;;;410.50;870.40;;;;;;5074345;28;20031;-71
2021/03/27 10:42:22;;;;;;;33.58;22.13;;;410.50;896.00;;;;;;5074091;28;20040;-70
2021/03/27 10:45:16;;;;;;;31.35;20.65;;;435.40;947.20;;;;;;4992323;28;20076;-70
2021/03/27 10:48:00;;;;;;;30.38;21.50;;;435.60;947.20;;;;;;4992660;28;20026;-70
2021/03/27 10:50:40;;;;;;;34.47;20.08;;;435.70;947.20;;;;;;4992373;28;20034;-70
2021/03/27 10:53:40;;;;;;;37.70;24.25;;;435.80;947.20;;;;;;4992433;28;20085;-71
2021/03/27 10:56:21;;;;;;;33.53;22.02;;;435.90;896.00;;;;;;4992321;28;20042;-70
2021/03/27 10:58:58;;;;;;;34.33;21.33;;;435.90;870.40;;;;;;4992290;28;20040;-71
2021/03/27 11:02:03;;;;;;;58.22;43.72;;;436.00;921.60;;;;;;4992441;28;20500;-69
2021/03/27 11:04:35;;;;;;;52.88;43.00;;;460.80;844.80;;;;;;4896151;29;20052;-70
2021/03/27 11:07:27;;;;;;;35.60;25.67;;;460.90;844.80;;;;;;4896573;29;20043;-70
2021/03/27 11:10:13;;;;;;;33.30;21.83;;;460.90;819.20;;;;;;4896483;29;20040;-70
2021/03/27 11:13:06;;;;;;;41.85;27.52;;;460.90;844.80;;;;;;4896157;29;20043;-69
2021/03/27 11:15:53;;;;;;;38.67;24.98;;;460.90;819.20;;;;;;4896328;29;20044;-70
2021/03/27 11:18:46;;;;;;;38.05;22.40;;;461.00;870.40;;;;;;4896101;29;20104;-70
2021/03/27 11:21:26;;;;;;;31.98;22.42;;;461.20;870.40;;;;;;4933393;28;20031;-70
2021/03/27 11:24:01;;;;;;;33.77;20.73;;;461.20;819.20;;;;;;4972323;28;20027;-70
2021/03/27 11:26:54;;;;;;;25.80;20.02;;;461.30;819.20;;;;;;4972196;28;20030;-70
2021/03/27 11:29:55;;;;;;;29.52;20.20;;;;;;;;;;4971690;28;20042;-70
2021/03/27 11:32:26;;;;;;;31.83;20.98;;;461.30;819.20;;;;;;4914899;29;20044;-70
2021/03/27 11:35:06;;;;;;;32.35;22.55;;;461.40;819.20;;;;;;4914889;29;20040;-70
2021/03/27 11:37:43;;;;;;;38.25;25.60;;;461.40;819.20;;;;;;4915024;29;20055;-70
2021/03/27 11:40:27;;;;;;;53.35;33.00;;;461.50;844.80;;;;;;4914631;29;20059;-70
2021/03/27 11:43:01;;;;;;;39.97;26.90;;;461.60;844.80;;;;;;4991449;28;20037;-70
2021/03/27 11:45:39;;;;;;;36.65;23.88;;;461.70;870.40;;;;;;4991203;28;20069;-70
2021/03/27 11:48:19;;;;;;;44.95;28.48;;;486.50;844.80;;;;;;4991306;28;20069;-70
2021/03/27 11:50:47;;;;;;;55.67;33.30;;;486.50;844.80;;;;;;4975021;28;20026;-70
2021/03/27 11:53:40;;;;;;;36.92;25.83;;;486.70;896.00;;;;;;4991319;28;20058;-70
2021/03/27 11:56:30;;;;;;;32.20;22.02;;;486.80;896.00;;;;;;4991275;28;20022;-70
2021/03/27 12:02:31;;;;;;;29.52;18.27;;;487.10;768.00;;;;;;4991283;28;20037;-70
2021/03/27 12:05:21;;;;;;;27.35;18.65;;;487.10;742.40;;;;;;4990978;28;20445;-70
2021/03/27 12:08:14;;;;;;;28.02;17.92;;;487.20;742.40;;;;;;5050261;28;20021;-70
2021/03/27 12:11:07;;;;;;;28.77;18.10;;;512.00;742.40;;;;;;5050468;28;20515;-71
2021/03/27 12:13:49;;;;;;;25.45;17.30;;;512.10;742.40;;;;;;5050219;28;20041;-71
2021/03/27 12:16:37;;;;;;;24.50;15.10;;;512.10;716.80;;;;;;5050159;28;20037;-71
2021/03/27 12:19:26;;;;;;;24.33;14.43;;;512.10;716.80;;;;;;5050046;28;20045;-72
2021/03/27 12:22:18;;;;;;;27.08;17.00;;;512.30;716.80;;;;;;5033603;28;20021;-70
2021/03/27 12:25:21;;;;;;;19.20;14.05;;;512.70;716.80;;;;;;5049799;28;20036;-71
2021/03/27 12:27:59;;;;;;;31.00;19.23;;;512.80;716.80;;;;;;5050163;28;20425;-71
2021/03/27 12:30:36;;;;;;;28.00;18.70;;;512.90;691.20;;;;;;5049824;28;20029;-71
2021/03/27 12:33:14;;;;;;;20.95;15.07;;;537.60;716.80;;;;;;5049811;28;20454;-70
2021/03/27 12:36:05;;;;;;;21.42;13.60;;;537.60;691.20;;;;;;5049940;28;20059;-70
2021/03/27 12:39:10;;;;;;;22.35;14.15;;;537.70;716.80;;;;;;5060124;28;20041;-69
2021/03/27 12:41:47;;;;;;;37.08;25.58;;;537.80;691.20;;;;;;4989713;28;20547;-71
2021/03/27 12:44:30;;;;;;;19.33;14.75;;;537.90;691.20;;;;;;4990569;28;20062;-70
2021/03/27 12:47:18;;;;;;;19.27;12.35;;;538.00;665.60;;;;;;4990378;28;20060;-72
2021/03/27 12:50:18;;;;;;;18.30;12.57;;;538.10;665.60;;;;;;4990524;28;20030;-71
2021/03/27 12:52:51;;;;;;;17.05;11.38;;;538.10;665.60;;;;;;4985708;28;20943;-70
2021/03/27 12:55:48;;;;;;;19.67;12.23;;;538.00;691.20;;;;;;4990063;28;20049;-72
2021/03/27 12:58:35;;;;;;;23.85;12.23;;;537.90;691.20;;;;;;4953638;28;20062;-70
2021/03/27 13:01:26;;;;;;;22.60;10.73;;;537.90;665.60;;;;;;4990292;28;20031;-71
2021/03/27 13:03:51;;;;;;;17.63;11.52;;;537.80;691.20;;;;;;4990023;28;20038;-71
2021/03/27 13:06:32;;;;;;;19.38;12.73;;;537.90;716.80;;;;;;4989725;28;20568;-72
2021/03/27 13:09:13;;;;;;;16.92;11.48;;;537.90;716.80;;;;;;5001782;28;20496;-71
2021/03/27 13:11:58;;;;;;;13.20;10.13;;;537.90;691.20;;;;;;5009643;28;20109;-73
2021/03/27 13:15:08;;;;;;;14.90;10.25;;;537.80;691.20;;;;;;5009830;28;20523;-71
2021/03/27 13:17:34;;;;;;;14.20;9.33;;;538.30;640.00;;;;;;5012698;28;20495;-73
2021/03/27 13:20:37;;;;;;;13.90;11.15;;;563.50;640.00;;;;;;5048149;28;20037;-71
2021/03/27 13:23:15;;;;;;;18.00;10.88;;;588.80;614.40;;;;;;5031056;28;20042;-71
2021/03/27 13:25:50;;;;;;;27.45;16.27;;;589.20;640.00;;;;;;5029610;28;20037;-71